Time;durP1;ratioP1;P1;durP2;ratioP2;P2;SDS_P1;SDS_P2;PMS_P1;PMS_P2;Temp;Humidity;BMP_temperature;BMP_pressure;BME280_temperature;BME280_humidity;BME280_pressure;Samples;Min_cycle;Max_cycle;Signal;HPM_P1;HPM_P2
2021/11/21 00:00:25;;;;;;;19.90;15.83;;;;;;;;;;5027579;28;20193;-56
2021/11/21 00:02:52;;;;;;;17.47;15.00;;;;;;;;;;5018412;28;20177;-55
2021/11/21 00:05:18;;;;;;;18.07;14.53;;;;;;;;;;5028236;28;20182;-55
2021/11/21 00:07:45;;;;;;;17.73;15.40;;;;;;;;;;5029071;28;20229;-56
2021/11/21 00:10:14;;;;;;;19.23;15.83;;;;;;;;;;5028233;28;20176;-56
2021/11/21 00:12:40;;;;;;;21.90;16.27;;;;;;;;;;5026004;28;20185;-55
2021/11/21 00:15:06;;;;;;;20.27;15.83;;;;;;;;;;5017483;28;20232;-55
2021/11/21 00:17:41;;;;;;;21.10;16.60;;;;;;;;;;5002636;28;20186;-55
2021/11/21 00:20:16;;;;;;;21.37;17.27;;;;;;;;;;5016229;28;20178;-55
2021/11/21 00:22:42;;;;;;;20.87;16.73;;;;;;;;;;5020973;28;20691;-55
2021/11/21 00:25:09;;;;;;;20.57;15.93;;;;;;;;;;5029645;28;20272;-55
2021/11/21 00:27:36;;;;;;;20.13;16.77;;;;;;;;;;5010190;28;20225;-55
2021/11/21 00:30:02;;;;;;;20.83;17.30;;;;;;;;;;5024480;28;20541;-55
2021/11/21 00:32:29;;;;;;;19.87;15.93;;;;;;;;;;5034540;28;20183;-55
2021/11/21 00:34:58;;;;;;;20.87;15.80;;;;;;;;;;5029382;28;20200;-55
2021/11/21 00:37:28;;;;;;;21.63;16.23;;;;;;;;;;5027515;28;20547;-55
2021/11/21 00:39:57;;;;;;;20.13;16.80;;;;;;;;;;5028563;28;20665;-55
2021/11/21 00:42:24;;;;;;;21.50;17.60;;;;;;;;;;5026991;28;21032;-56
2021/11/21 00:44:51;;;;;;;22.40;17.57;;;;;;;;;;5028208;28;20174;-56
2021/11/21 00:47:17;;;;;;;21.60;17.13;;;;;;;;;;5025966;28;20221;-56
2021/11/21 00:49:44;;;;;;;21.93;17.57;;;;;;;;;;5024338;28;20183;-56
2021/11/21 00:52:11;;;;;;;20.67;17.27;;;;;;;;;;5009128;28;20528;-57
2021/11/21 00:54:48;;;;;;;22.93;17.70;;;;;;;;;;5028377;28;20270;-54
2021/11/21 00:57:15;;;;;;;21.23;17.13;;;;;;;;;;5030755;28;20221;-56
2021/11/21 00:59:42;;;;;;;22.93;17.43;;;;;;;;;;5012395;28;20182;-53
2021/11/21 01:02:09;;;;;;;20.30;17.47;;;;;;;;;;5032607;28;20169;-53
2021/11/21 01:04:41;;;;;;;20.63;17.33;;;;;;;;;;5031271;28;20225;-52
2021/11/21 01:07:08;;;;;;;21.40;16.70;;;;;;;;;;5030016;28;20572;-52
2021/11/21 01:09:35;;;;;;;22.53;18.30;;;;;;;;;;5012671;28;20227;-54
2021/11/21 01:12:01;;;;;;;22.77;17.17;;;;;;;;;;5012342;28;20182;-53
2021/11/21 01:14:28;;;;;;;21.63;16.93;;;;;;;;;;5012876;28;20209;-53
2021/11/21 01:16:55;;;;;;;22.80;17.20;;;;;;;;;;5011665;28;20695;-54
2021/11/21 01:19:21;;;;;;;21.93;17.17;;;;;;;;;;5012772;28;20186;-52
2021/11/21 01:21:48;;;;;;;22.77;17.40;;;;;;;;;;5030266;28;20229;-53
2021/11/21 01:24:14;;;;;;;22.83;19.13;;;;;;;;;;5026279;28;20185;-53
2021/11/21 01:26:40;;;;;;;23.97;19.23;;;;;;;;;;5028620;28;20594;-53
2021/11/21 01:29:06;;;;;;;23.37;17.60;;;;;;;;;;5030490;28;20198;-53
2021/11/21 01:31:33;;;;;;;23.90;18.67;;;;;;;;;;5011747;28;20480;-53
2021/11/21 01:33:59;;;;;;;21.03;16.83;;;;;;;;;;5014094;28;20232;-53
2021/11/21 01:36:25;;;;;;;22.47;18.47;;;;;;;;;;5036552;28;20185;-53
2021/11/21 01:38:51;;;;;;;20.47;17.10;;;;;;;;;;5030554;28;20185;-55
2021/11/21 01:41:19;;;;;;;21.93;17.83;;;;;;;;;;5011722;28;20209;-53
2021/11/21 01:43:45;;;;;;;24.03;18.17;;;;;;;;;;5029652;28;20186;-53
2021/11/21 01:46:14;;;;;;;22.53;18.10;;;;;;;;;;5029032;28;20601;-53
2021/11/21 01:48:40;;;;;;;24.60;19.20;;;;;;;;;;5011435;28;20228;-54
2021/11/21 01:51:08;;;;;;;22.30;17.97;;;;;;;;;;5012569;28;20189;-53
2021/11/21 01:53:36;;;;;;;23.03;17.63;;;;;;;;;;5031575;28;20205;-53
2021/11/21 01:56:02;;;;;;;21.37;17.60;;;;;;;;;;5030031;28;20221;-53
2021/11/21 01:58:28;;;;;;;21.10;17.50;;;;;;;;;;5029442;28;20224;-53
2021/11/21 02:00:55;;;;;;;21.47;17.63;;;;;;;;;;5004230;28;20185;-52
2021/11/21 02:03:21;;;;;;;23.53;17.87;;;;;;;;;;5030871;28;20186;-53
2021/11/21 02:05:48;;;;;;;24.23;17.90;;;;;;;;;;5028826;28;20178;-53
2021/11/21 02:08:14;;;;;;;21.40;17.53;;;;;;;;;;5029634;28;20210;-53
2021/11/21 02:10:40;;;;;;;21.27;17.43;;;;;;;;;;5012095;28;20570;-52
2021/11/21 02:13:07;;;;;;;23.17;18.93;;;;;;;;;;5029231;28;20184;-52
2021/11/21 02:15:35;;;;;;;21.90;18.03;;;;;;;;;;5029438;28;20228;-54
2021/11/21 02:18:01;;;;;;;21.60;17.97;;;;;;;;;;5028281;28;20637;-53
2021/11/21 02:20:34;;;;;;;22.50;18.37;;;;;;;;;;5029604;28;20229;-53
2021/11/21 02:23:04;;;;;;;22.53;18.47;;;;;;;;;;5011507;28;20663;-53
2021/11/21 02:25:31;;;;;;;22.17;18.33;;;;;;;;;;5012496;28;20648;-53
2021/11/21 02:27:57;;;;;;;22.27;17.60;;;;;;;;;;5028385;28;20292;-53
2021/11/21 02:30:23;;;;;;;20.83;16.90;;;;;;;;;;5029270;28;20666;-52
2021/11/21 02:32:51;;;;;;;22.13;17.63;;;;;;;;;;5028944;28;20621;-54
2021/11/21 02:35:18;;;;;;;21.77;18.13;;;;;;;;;;5028541;28;20636;-53
2021/11/21 02:37:44;;;;;;;20.33;17.27;;;;;;;;;;5026855;28;20201;-53
2021/11/21 02:40:11;;;;;;;21.07;17.70;;;;;;;;;;5011442;28;20186;-53
2021/11/21 02:42:37;;;;;;;21.23;17.67;;;;;;;;;;5029176;28;20173;-53
2021/11/21 02:45:11;;;;;;;22.00;17.00;;;;;;;;;;5011519;28;20185;-53
2021/11/21 02:47:38;;;;;;;22.70;17.00;;;;;;;;;;5024058;28;20360;-53
2021/11/21 02:50:06;;;;;;;21.37;17.33;;;;;;;;;;5006544;28;20668;-53
2021/11/21 02:52:32;;;;;;;21.60;16.73;;;;;;;;;;5014941;28;20224;-53
2021/11/21 02:54:58;;;;;;;23.70;17.83;;;;;;;;;;4991453;28;20182;-53
2021/11/21 02:57:25;;;;;;;22.27;17.17;;;;;;;;;;5003376;28;20608;-53
2021/11/21 02:59:52;;;;;;;22.60;17.87;;;;;;;;;;5009142;28;20883;-53
2021/11/21 03:02:20;;;;;;;21.40;17.77;;;;;;;;;;4988580;28;20744;-52
2021/11/21 03:04:50;;;;;;;22.73;17.93;;;;;;;;;;4994937;28;20174;-52
2021/11/21 03:07:17;;;;;;;21.40;15.63;;;;;;;;;;5015439;28;20189;-54
2021/11/21 03:09:43;;;;;;;21.73;17.47;;;;;;;;;;5014621;28;20206;-52
2021/11/21 03:12:09;;;;;;;20.70;16.73;;;;;;;;;;5012359;28;20182;-53
2021/11/21 03:14:36;;;;;;;21.40;17.70;;;;;;;;;;5011359;28;20183;-53
2021/11/21 03:17:02;;;;;;;21.27;16.57;;;;;;;;;;5009688;28;20186;-53
2021/11/21 03:19:28;;;;;;;24.07;17.90;;;;;;;;;;4999219;28;20190;-53
2021/11/21 03:21:55;;;;;;;20.87;16.30;;;;;;;;;;5009312;28;20604;-53
2021/11/21 03:24:21;;;;;;;22.03;16.93;;;;;;;;;;5017436;28;20305;-51
2021/11/21 03:26:47;;;;;;;21.83;16.57;;;;;;;;;;4991861;28;20665;-53
2021/11/21 03:29:14;;;;;;;23.87;17.63;;;;;;;;;;5027660;28;20205;-52
2021/11/21 03:31:40;;;;;;;18.80;15.43;;;;;;;;;;5016261;28;20641;-53
2021/11/21 03:34:07;;;;;;;20.83;16.83;;;;;;;;;;5009574;28;20597;-53
2021/11/21 03:36:34;;;;;;;21.93;17.07;;;;;;;;;;4997866;28;20624;-52
2021/11/21 03:39:00;;;;;;;20.80;15.93;;;;;;;;;;5017462;28;20194;-53
2021/11/21 03:41:27;;;;;;;21.83;16.67;;;;;;;;;;5016111;28;20216;-53
2021/11/21 03:43:53;;;;;;;21.93;16.47;;;;;;;;;;5016629;28;20200;-53
2021/11/21 03:46:21;;;;;;;21.53;17.07;;;;;;;;;;5006272;28;20189;-53
2021/11/21 03:48:48;;;;;;;24.60;17.93;;;;;;;;;;5029216;28;20216;-53
2021/11/21 03:51:14;;;;;;;20.90;16.40;;;;;;;;;;5021720;28;20180;-53
2021/11/21 03:53:40;;;;;;;20.20;15.73;;;;;;;;;;5027023;28;20201;-53
2021/11/21 03:56:07;;;;;;;21.67;16.63;;;;;;;;;;5027479;28;20723;-54
2021/11/21 03:58:33;;;;;;;21.60;16.27;;;;;;;;;;5027960;28;20190;-53
2021/11/21 04:00:59;;;;;;;24.97;16.93;;;;;;;;;;4993486;28;20733;-53
2021/11/21 04:03:26;;;;;;;22.33;16.73;;;;;;;;;;5009037;28;20276;-53
2021/11/21 04:05:52;;;;;;;21.83;16.67;;;;;;;;;;5010130;28;20660;-52
2021/11/21 04:08:18;;;;;;;23.83;17.73;;;;;;;;;;5011500;28;20198;-51
2021/11/21 04:10:45;;;;;;;24.30;17.47;;;;;;;;;;5009703;28;20190;-52
2021/11/21 04:13:11;;;;;;;22.93;16.87;;;;;;;;;;5027456;28;20539;-53
2021/11/21 04:15:38;;;;;;;23.20;17.20;;;;;;;;;;5028483;28;20185;-52
2021/11/21 04:18:04;;;;;;;21.50;16.27;;;;;;;;;;5026623;28;20512;-52
2021/11/21 04:20:30;;;;;;;22.67;16.67;;;;;;;;;;5008462;28;20210;-51
2021/11/21 04:22:57;;;;;;;20.80;15.87;;;;;;;;;;5010056;28;20177;-52
2021/11/21 04:25:23;;;;;;;21.43;16.10;;;;;;;;;;5010065;28;20275;-53
2021/11/21 04:27:49;;;;;;;23.63;17.83;;;;;;;;;;5030263;28;20552;-52
2021/11/21 04:30:16;;;;;;;24.37;16.97;;;;;;;;;;5011536;28;20659;-52
2021/11/21 04:32:44;;;;;;;22.50;16.73;;;;;;;;;;5029572;28;20521;-53
2021/11/21 04:35:12;;;;;;;23.20;17.30;;;;;;;;;;5031378;28;20637;-52
2021/11/21 04:37:38;;;;;;;21.97;15.97;;;;;;;;;;5003925;28;20185;-53
2021/11/21 04:40:06;;;;;;;22.87;16.17;;;;;;;;;;5013798;28;20366;-52
2021/11/21 04:42:32;;;;;;;23.60;16.40;;;;;;;;;;5029996;28;20187;-52
2021/11/21 04:44:58;;;;;;;24.20;16.83;;;;;;;;;;5013505;28;20193;-53
2021/11/21 04:47:25;;;;;;;21.43;16.23;;;;;;;;;;5013606;28;21967;-53
2021/11/21 04:49:52;;;;;;;21.43;14.83;;;;;;;;;;5013182;28;20747;-53
2021/11/21 04:52:18;;;;;;;24.00;17.77;;;;;;;;;;5029493;28;21154;-52
2021/11/21 04:54:44;;;;;;;20.37;15.93;;;;;;;;;;5037632;28;20219;-52
2021/11/21 04:57:10;;;;;;;19.83;15.03;;;;;;;;;;5014651;28;20205;-52
2021/11/21 04:59:37;;;;;;;23.73;16.43;;;;;;;;;;5013167;28;20714;-54
2021/11/21 05:02:04;;;;;;;21.67;15.73;;;;;;;;;;5028731;28;20292;-52
2021/11/21 05:04:30;;;;;;;19.67;14.83;;;;;;;;;;5008698;28;20553;-51
2021/11/21 05:06:57;;;;;;;20.50;15.47;;;;;;;;;;5028812;28;20653;-53
2021/11/21 05:09:23;;;;;;;21.00;15.77;;;;;;;;;;5012525;28;20283;-52
2021/11/21 05:11:49;;;;;;;21.67;15.73;;;;;;;;;;5030798;28;20174;-54
2021/11/21 05:14:18;;;;;;;19.17;14.43;;;;;;;;;;5014841;28;20584;-53
2021/11/21 05:16:45;;;;;;;20.97;15.77;;;;;;;;;;5027094;28;20197;-53
2021/11/21 05:19:11;;;;;;;20.87;14.67;;;;;;;;;;5029322;28;20182;-53
2021/11/21 05:21:37;;;;;;;20.33;13.47;;;;;;;;;;5029849;28;20212;-53
2021/11/21 05:24:04;;;;;;;19.40;14.60;;;;;;;;;;5010018;28;20185;-53
2021/11/21 05:26:30;;;;;;;22.07;15.77;;;;;;;;;;5012070;28;20185;-52
2021/11/21 05:28:56;;;;;;;17.63;13.47;;;;;;;;;;5030731;28;20675;-53
2021/11/21 05:31:25;;;;;;;20.17;13.80;;;;;;;;;;5029012;28;20174;-53
2021/11/21 05:33:51;;;;;;;22.40;15.40;;;;;;;;;;5011168;28;20178;-53
2021/11/21 05:36:18;;;;;;;20.77;15.43;;;;;;;;;;5011464;28;20328;-52
2021/11/21 05:38:44;;;;;;;18.83;13.93;;;;;;;;;;5029681;28;20178;-54
2021/11/21 05:41:10;;;;;;;19.37;14.00;;;;;;;;;;5029579;28;20311;-53
2021/11/21 05:43:36;;;;;;;20.97;14.70;;;;;;;;;;5008358;28;20264;-53
2021/11/21 05:46:03;;;;;;;20.50;14.90;;;;;;;;;;5028894;28;20729;-53
2021/11/21 05:48:29;;;;;;;20.33;14.10;;;;;;;;;;4997114;28;20669;-51
2021/11/21 05:50:56;;;;;;;18.43;14.10;;;;;;;;;;5011708;28;20186;-52
2021/11/21 05:53:22;;;;;;;19.23;13.53;;;;;;;;;;4992332;28;20190;-52
2021/11/21 05:55:48;;;;;;;18.83;14.00;;;;;;;;;;4992332;28;20568;-52
2021/11/21 05:58:18;;;;;;;18.30;14.00;;;;;;;;;;5010087;28;20186;-52
2021/11/21 06:00:45;;;;;;;18.53;13.53;;;;;;;;;;4998775;28;20776;-54
2021/11/21 06:03:11;;;;;;;18.23;14.27;;;;;;;;;;4993119;28;20221;-53
2021/11/21 06:05:38;;;;;;;17.10;13.33;;;;;;;;;;4992273;28;20667;-53
2021/11/21 06:08:06;;;;;;;18.77;13.40;;;;;;;;;;4991562;28;20221;-52
2021/11/21 06:10:32;;;;;;;17.07;13.10;;;;;;;;;;4992050;28;20182;-53
2021/11/21 06:12:59;;;;;;;20.17;14.30;;;;;;;;;;4992263;28;20178;-53
2021/11/21 06:15:25;;;;;;;19.33;14.50;;;;;;;;;;4992032;28;20550;-54
2021/11/21 06:17:51;;;;;;;18.57;13.70;;;;;;;;;;5008622;28;20175;-52
2021/11/21 06:20:17;;;;;;;19.73;14.53;;;;;;;;;;4989298;28;20229;-53
2021/11/21 06:22:44;;;;;;;19.37;13.07;;;;;;;;;;4992233;28;20639;-53
2021/11/21 06:25:10;;;;;;;19.43;13.73;;;;;;;;;;4991906;28;20186;-54
2021/11/21 06:27:37;;;;;;;19.23;13.07;;;;;;;;;;5003561;28;20232;-53
2021/11/21 06:30:04;;;;;;;18.97;13.83;;;;;;;;;;5009397;28;20179;-53
2021/11/21 06:32:30;;;;;;;17.20;13.03;;;;;;;;;;5008410;28;20610;-52
2021/11/21 06:34:56;;;;;;;18.50;13.83;;;;;;;;;;5008970;28;20178;-53
2021/11/21 06:37:23;;;;;;;16.47;12.97;;;;;;;;;;4990947;28;20662;-52
2021/11/21 06:39:49;;;;;;;17.50;13.00;;;;;;;;;;5008805;28;20178;-51
2021/11/21 06:42:15;;;;;;;15.93;13.50;;;;;;;;;;5009019;28;20194;-52
2021/11/21 06:44:42;;;;;;;15.93;12.80;;;;;;;;;;4999287;28;20185;-52
2021/11/21 06:47:08;;;;;;;16.00;13.07;;;;;;;;;;5010423;28;20272;-52
2021/11/21 06:49:34;;;;;;;16.63;13.23;;;;;;;;;;5011065;28;20217;-52
2021/11/21 06:52:01;;;;;;;17.17;13.07;;;;;;;;;;5032529;28;20182;-52
2021/11/21 06:54:27;;;;;;;18.03;13.30;;;;;;;;;;5028094;28;20242;-51
2021/11/21 06:56:54;;;;;;;15.50;12.73;;;;;;;;;;5015678;28;20201;-52
2021/11/21 06:59:20;;;;;;;14.30;12.43;;;;;;;;;;5027999;28;20529;-51
2021/11/21 07:01:46;;;;;;;16.20;12.57;;;;;;;;;;5011544;28;20189;-51
2021/11/21 07:04:12;;;;;;;15.93;12.57;;;;;;;;;;5028952;28;20181;-51
2021/11/21 07:06:40;;;;;;;16.70;13.33;;;;;;;;;;5026656;28;20193;-51
2021/11/21 07:09:08;;;;;;;17.33;13.13;;;;;;;;;;5027580;28;20220;-51
2021/11/21 07:11:34;;;;;;;16.90;13.70;;;;;;;;;;5010663;28;20277;-52
2021/11/21 07:14:00;;;;;;;17.80;13.77;;;;;;;;;;5029322;28;20189;-52
2021/11/21 07:16:27;;;;;;;17.47;12.90;;;;;;;;;;5024928;28;20655;-51
2021/11/21 07:18:53;;;;;;;19.00;14.33;;;;;;;;;;5009299;28;20236;-51
2021/11/21 07:21:19;;;;;;;16.40;13.07;;;;;;;;;;5027868;28;20213;-51
2021/11/21 07:23:45;;;;;;;15.23;12.33;;;;;;;;;;5029211;28;20182;-51
2021/11/21 07:26:12;;;;;;;16.37;13.10;;;;;;;;;;4992020;28;20297;-52
2021/11/21 07:28:39;;;;;;;17.47;13.17;;;;;;;;;;5022611;28;20679;-51
2021/11/21 07:31:05;;;;;;;18.67;13.90;;;;;;;;;;5026382;28;20680;-51
2021/11/21 07:33:32;;;;;;;18.20;12.90;;;;;;;;;;5013874;28;20186;-51
2021/11/21 07:35:58;;;;;;;17.83;13.13;;;;;;;;;;5026750;28;20259;-52
2021/11/21 07:38:25;;;;;;;15.33;12.27;;;;;;;;;;5007966;28;20692;-52
2021/11/21 07:40:54;;;;;;;15.43;13.20;;;;;;;;;;5009773;28;20216;-52
2021/11/21 07:43:22;;;;;;;16.37;12.27;;;;;;;;;;5010218;28;20177;-52
2021/11/21 07:45:49;;;;;;;17.97;12.60;;;;;;;;;;4990179;28;20193;-53
2021/11/21 07:48:15;;;;;;;16.73;12.53;;;;;;;;;;5019677;28;20268;-53
2021/11/21 07:50:42;;;;;;;16.07;12.47;;;;;;;;;;5014004;28;20260;-53
2021/11/21 07:53:09;;;;;;;16.83;12.90;;;;;;;;;;5026195;28;20186;-52
2021/11/21 07:55:35;;;;;;;14.97;12.07;;;;;;;;;;5023479;28;20253;-52
2021/11/21 07:58:01;;;;;;;17.27;11.73;;;;;;;;;;5022100;28;20356;-52
2021/11/21 08:00:27;;;;;;;15.37;12.10;;;;;;;;;;5027406;28;20189;-52
2021/11/21 08:02:53;;;;;;;14.87;11.17;;;;;;;;;;5025603;28;20186;-52
2021/11/21 08:05:19;;;;;;;14.03;11.30;;;;;;;;;;5031039;28;20182;-53
2021/11/21 08:07:45;;;;;;;15.30;11.60;;;;;;;;;;5031360;28;20589;-52
2021/11/21 08:10:12;;;;;;;13.13;10.73;;;;;;;;;;5030713;28;20416;-53
2021/11/21 08:12:39;;;;;;;14.73;11.60;;;;;;;;;;5031648;28;20570;-52
2021/11/21 08:15:05;;;;;;;14.37;11.43;;;;;;;;;;5014113;28;20193;-54
2021/11/21 08:17:32;;;;;;;14.07;10.53;;;;;;;;;;5028363;28;20189;-52
2021/11/21 08:19:58;;;;;;;15.87;11.27;;;;;;;;;;5031426;28;20182;-53
2021/11/21 08:22:24;;;;;;;12.87;10.90;;;;;;;;;;5027681;28;20221;-53
2021/11/21 08:24:51;;;;;;;15.83;11.87;;;;;;;;;;5027848;28;20261;-54
2021/11/21 08:27:17;;;;;;;13.73;10.27;;;;;;;;;;5027994;28;20296;-52
2021/11/21 08:29:44;;;;;;;13.77;10.13;;;;;;;;;;5030129;28;20208;-52
2021/11/21 08:32:10;;;;;;;14.77;10.87;;;;;;;;;;5035339;28;20178;-53
2021/11/21 08:34:36;;;;;;;14.47;11.03;;;;;;;;;;5030410;28;20232;-52
2021/11/21 08:37:02;;;;;;;14.03;10.73;;;;;;;;;;5025256;28;20197;-53
2021/11/21 08:39:29;;;;;;;12.93;10.30;;;;;;;;;;5027259;28;20848;-53
2021/11/21 08:41:56;;;;;;;14.33;10.60;;;;;;;;;;5025977;28;20204;-53
2021/11/21 08:44:23;;;;;;;12.47;9.13;;;;;;;;;;5028389;28;20182;-53
2021/11/21 08:46:49;;;;;;;14.93;10.53;;;;;;;;;;5012751;28;20607;-53
2021/11/21 08:49:16;;;;;;;11.87;9.70;;;;;;;;;;5032126;28;20221;-53
2021/11/21 08:51:43;;;;;;;12.30;9.83;;;;;;;;;;5031317;28;20180;-54
2021/11/21 08:54:10;;;;;;;11.60;10.00;;;;;;;;;;4997282;28;20255;-53
2021/11/21 08:56:36;;;;;;;13.93;10.43;;;;;;;;;;5029616;28;20221;-53
2021/11/21 08:59:03;;;;;;;13.23;9.87;;;;;;;;;;5030573;28;20237;-53
2021/11/21 09:01:30;;;;;;;12.97;9.07;;;;;;;;;;5011088;28;20284;-53
2021/11/21 09:03:56;;;;;;;10.33;8.63;;;;;;;;;;5000353;28;20208;-53
2021/11/21 09:06:22;;;;;;;12.83;9.60;;;;;;;;;;5026710;28;20185;-53
2021/11/21 09:08:49;;;;;;;12.67;9.27;;;;;;;;;;5030096;28;20198;-53
2021/11/21 09:11:15;;;;;;;11.83;9.50;;;;;;;;;;5012572;28;20181;-53
2021/11/21 09:13:41;;;;;;;13.40;10.03;;;;;;;;;;5030792;28;20193;-53
2021/11/21 09:16:08;;;;;;;13.93;9.53;;;;;;;;;;5011194;28;20188;-54
2021/11/21 09:18:35;;;;;;;11.00;8.77;;;;;;;;;;5029826;28;20184;-53
2021/11/21 09:21:01;;;;;;;11.43;8.97;;;;;;;;;;5019019;28;20194;-54
2021/11/21 09:23:28;;;;;;;12.13;8.73;;;;;;;;;;5027253;28;20189;-53
2021/11/21 09:25:54;;;;;;;13.33;9.03;;;;;;;;;;5013405;28;20276;-53
2021/11/21 09:28:21;;;;;;;11.80;9.10;;;;;;;;;;5029152;28;21030;-53
2021/11/21 09:30:48;;;;;;;11.87;9.07;;;;;;;;;;5028562;28;20257;-55
2021/11/21 09:33:14;;;;;;;12.63;9.13;;;;;;;;;;5028848;28;20190;-53
2021/11/21 09:35:40;;;;;;;12.83;9.07;;;;;;;;;;5029618;28;20186;-53
2021/11/21 09:38:07;;;;;;;11.13;8.63;;;;;;;;;;5030187;28;20185;-53
2021/11/21 09:40:33;;;;;;;12.67;9.13;;;;;;;;;;5031268;28;20174;-54
2021/11/21 09:43:00;;;;;;;12.80;9.03;;;;;;;;;;5030483;28;20189;-52
2021/11/21 09:45:26;;;;;;;12.30;9.30;;;;;;;;;;5011297;28;20212;-53
2021/11/21 09:47:55;;;;;;;13.83;10.53;;;;;;;;;;5028797;28;20695;-53
2021/11/21 09:50:22;;;;;;;12.57;9.33;;;;;;;;;;5012916;28;20232;-54
2021/11/21 09:52:49;;;;;;;12.70;9.80;;;;;;;;;;5029637;28;20188;-53
2021/11/21 09:55:15;;;;;;;12.17;9.33;;;;;;;;;;5030502;28;20261;-53
2021/11/21 09:57:41;;;;;;;10.77;8.50;;;;;;;;;;5029397;28;20188;-53
2021/11/21 10:00:09;;;;;;;12.17;9.37;;;;;;;;;;5012960;28;20591;-53
2021/11/21 10:02:36;;;;;;;12.20;9.47;;;;;;;;;;5028915;28;20240;-54
2021/11/21 10:05:04;;;;;;;14.03;10.17;;;;;;;;;;5029742;28;21017;-53
2021/11/21 10:07:35;;;;;;;11.47;8.93;;;;;;;;;;5009104;28;20550;-53
2021/11/21 10:10:01;;;;;;;14.63;10.10;;;;;;;;;;5029535;28;20240;-53
2021/11/21 10:12:36;;;;;;;13.80;9.80;;;;;;;;;;5017883;28;20189;-53
2021/11/21 10:15:07;;;;;;;14.83;10.50;;;;;;;;;;5035979;28;20185;-55
2021/11/21 10:17:34;;;;;;;13.20;9.60;;;;;;;;;;5031478;28;20177;-54
2021/11/21 10:20:11;;;;;;;12.73;9.93;;;;;;;;;;5031142;28;20210;-52
2021/11/21 10:22:54;;;;;;;14.60;10.47;;;;;;;;;;5025656;28;20193;-53
2021/11/21 10:25:47;;;;;;;15.00;10.53;;;;;;;;;;5019300;28;20253;-52
2021/11/21 10:28:16;;;;;;;13.90;10.53;;;;;;;;;;5003014;28;20868;-53
2021/11/21 10:31:00;;;;;;;14.23;10.33;;;;;;;;;;5025407;28;20188;-54
2021/11/21 10:33:31;;;;;;;15.43;10.57;;;;;;;;;;5027310;28;20668;-53
2021/11/21 10:36:04;;;;;;;15.27;10.43;;;;;;;;;;5005490;28;20708;-53
2021/11/21 10:38:35;;;;;;;14.10;10.07;;;;;;;;;;5007603;28;20197;-52
2021/11/21 10:41:05;;;;;;;16.53;12.07;;;;;;;;;;5027153;28;20265;-53
2021/11/21 10:43:31;;;;;;;16.77;11.70;;;;;;;;;;5027605;28;20204;-53
2021/11/21 10:46:00;;;;;;;19.23;11.50;;;;;;;;;;5027300;28;20185;-53
2021/11/21 10:48:27;;;;;;;19.13;11.50;;;;;;;;;;5027312;28;21523;-53
2021/11/21 10:50:54;;;;;;;15.63;11.73;;;;;;;;;;5021178;28;20201;-53
2021/11/21 10:53:21;;;;;;;16.83;12.07;;;;;;;;;;5026232;28;20190;-54
2021/11/21 10:55:47;;;;;;;14.77;11.00;;;;;;;;;;5027938;28;20193;-53
2021/11/21 10:58:18;;;;;;;14.13;10.93;;;;;;;;;;5027788;28;20186;-52
2021/11/21 11:00:54;;;;;;;15.87;12.13;;;;;;;;;;5011014;28;20696;-51
2021/11/21 11:03:22;;;;;;;16.20;11.03;;;;;;;;;;4991811;28;20185;-52
2021/11/21 11:05:48;;;;;;;15.20;11.20;;;;;;;;;;5027769;28;20190;-53
2021/11/21 11:08:24;;;;;;;17.23;10.73;;;;;;;;;;5028869;28;20210;-52
2021/11/21 11:10:51;;;;;;;17.10;10.83;;;;;;;;;;5028532;28;20165;-52
2021/11/21 11:13:17;;;;;;;16.33;10.37;;;;;;;;;;5028281;28;20178;-51
2021/11/21 11:15:50;;;;;;;15.60;10.37;;;;;;;;;;5010030;28;20307;-52
2021/11/21 11:18:17;;;;;;;14.47;9.67;;;;;;;;;;5022375;28;20227;-52
2021/11/21 11:20:51;;;;;;;16.30;10.30;;;;;;;;;;5025213;28;20190;-52
2021/11/21 11:23:22;;;;;;;14.03;10.13;;;;;;;;;;4997992;28;20177;-51
2021/11/21 11:25:49;;;;;;;16.50;10.77;;;;;;;;;;5027804;28;20166;-52
2021/11/21 11:28:29;;;;;;;13.93;10.20;;;;;;;;;;5024159;28;20198;-52
2021/11/21 11:30:56;;;;;;;13.63;9.03;;;;;;;;;;5026492;28;20173;-52
2021/11/21 11:33:23;;;;;;;15.33;10.23;;;;;;;;;;5027775;28;20261;-52
2021/11/21 11:35:50;;;;;;;16.80;11.37;;;;;;;;;;5023860;28;20659;-52
2021/11/21 11:38:24;;;;;;;17.07;9.93;;;;;;;;;;5028002;28;20185;-50
2021/11/21 11:40:55;;;;;;;15.50;9.80;;;;;;;;;;5027604;28;20181;-52
2021/11/21 11:43:27;;;;;;;12.90;9.57;;;;;;;;;;5028484;28;20239;-52
2021/11/21 11:45:57;;;;;;;14.47;10.27;;;;;;;;;;5026027;28;20640;-53
2021/11/21 11:48:26;;;;;;;16.90;9.83;;;;;;;;;;4996721;28;20238;-53
2021/11/21 11:50:54;;;;;;;11.43;8.80;;;;;;;;;;5007600;28;20198;-58
2021/11/21 11:53:37;;;;;;;14.67;9.27;;;;;;;;;;5008404;28;20630;-52
2021/11/21 11:56:09;;;;;;;13.23;9.20;;;;;;;;;;5007620;28;20209;-52
2021/11/21 11:58:57;;;;;;;13.63;8.70;;;;;;;;;;5007979;28;20179;-51
2021/11/21 12:01:39;;;;;;;13.13;8.93;;;;;;;;;;4993387;28;20220;-53
2021/11/21 12:04:07;;;;;;;13.40;8.43;;;;;;;;;;4993489;28;20778;-54
2021/11/21 12:06:41;;;;;;;14.67;8.40;;;;;;;;;;4989410;28;20701;-54
2021/11/21 12:09:17;;;;;;;15.73;9.03;;;;;;;;;;4990988;28;20206;-53
2021/11/21 12:11:57;;;;;;;14.37;7.77;;;;;;;;;;4997340;28;20645;-53
2021/11/21 12:14:35;;;;;;;12.07;8.07;;;;;;;;;;5007476;28;20174;-54
2021/11/21 12:17:03;;;;;;;11.60;6.60;;;;;;;;;;5000645;28;20705;-53
2021/11/21 12:19:39;;;;;;;9.70;6.57;;;;;;;;;;5006531;28;20198;-54
2021/11/21 12:22:05;;;;;;;12.73;7.20;;;;;;;;;;5000426;28;20182;-54
2021/11/21 12:24:33;;;;;;;11.57;7.17;;;;;;;;;;5000785;28;20645;-55
2021/11/21 12:27:00;;;;;;;11.37;7.50;;;;;;;;;;4989112;28;20524;-54
2021/11/21 12:29:34;;;;;;;10.10;6.20;;;;;;;;;;4975383;28;20210;-53
2021/11/21 12:32:19;;;;;;;7.20;5.97;;;;;;;;;;4992110;28;20191;-54
2021/11/21 12:34:46;;;;;;;12.47;5.33;;;;;;;;;;5000984;28;20266;-54
2021/11/21 12:37:21;;;;;;;14.03;5.60;;;;;;;;;;4987659;28;20502;-54
2021/11/21 12:39:49;;;;;;;10.70;4.50;;;;;;;;;;5007729;28;20752;-54
2021/11/21 12:42:16;;;;;;;13.90;4.93;;;;;;;;;;4988386;28;20189;-54
2021/11/21 12:44:43;;;;;;;7.83;4.40;;;;;;;;;;4990768;28;20194;-54
2021/11/21 12:47:10;;;;;;;8.27;4.77;;;;;;;;;;4991769;28;20256;-53
2021/11/21 12:49:37;;;;;;;9.63;4.10;;;;;;;;;;5028183;28;20297;-54
2021/11/21 12:52:03;;;;;;;10.03;4.13;;;;;;;;;;5029681;28;20170;-54
2021/11/21 12:54:30;;;;;;;11.23;3.73;;;;;;;;;;5013011;28;20632;-54
2021/11/21 12:56:56;;;;;;;13.03;4.43;;;;;;;;;;5013266;28;20511;-54
2021/11/21 12:59:42;;;;;;;15.03;4.17;;;;;;;;;;5031679;28;20592;-54
2021/11/21 13:02:12;;;;;;;10.10;3.40;;;;;;;;;;5009542;28;20346;-53
2021/11/21 13:04:57;;;;;;;7.80;3.33;;;;;;;;;;5031465;28;20534;-53
2021/11/21 13:07:24;;;;;;;11.23;3.73;;;;;;;;;;5029714;28;20536;-54
2021/11/21 13:10:02;;;;;;;9.27;4.33;;;;;;;;;;5031632;28;20200;-54
2021/11/21 13:12:30;;;;;;;6.83;3.53;;;;;;;;;;5031300;28;20178;-53
2021/11/21 13:14:59;;;;;;;8.97;3.97;;;;;;;;;;5030424;28;20193;-53
2021/11/21 13:17:26;;;;;;;11.70;3.60;;;;;;;;;;5028041;28;20189;-53
2021/11/21 13:20:04;;;;;;;8.60;3.30;;;;;;;;;;5031269;28;20182;-53
2021/11/21 13:22:49;;;;;;;8.13;4.50;;;;;;;;;;5031433;28;20636;-53
2021/11/21 13:25:38;;;;;;;7.50;3.87;;;;;;;;;;5030458;28;20181;-54
2021/11/21 13:28:23;;;;;;;7.10;2.93;;;;;;;;;;5002501;28;20225;-53
2021/11/21 13:30:50;;;;;;;7.73;2.40;;;;;;;;;;5012779;28;20178;-54
2021/11/21 13:33:17;;;;;;;7.33;2.60;;;;;;;;;;5012494;28;20184;-52
2021/11/21 13:35:44;;;;;;;7.93;2.53;;;;;;;;;;5028803;28;20656;-54
2021/11/21 13:38:11;;;;;;;8.23;4.17;;;;;;;;;;5009322;28;20655;-52
2021/11/21 13:40:38;;;;;;;9.43;2.53;;;;;;;;;;5017078;28;20181;-52
2021/11/21 13:43:05;;;;;;;8.73;2.53;;;;;;;;;;5030434;28;20607;-53
2021/11/21 13:45:32;;;;;;;6.07;2.37;;;;;;;;;;5011793;28;20558;-52
2021/11/21 13:47:59;;;;;;;7.00;2.30;;;;;;;;;;5028719;28;20214;-53
2021/11/21 13:50:30;;;;;;;6.97;2.03;;;;;;;;;;5031150;28;20495;-53
2021/11/21 13:52:56;;;;;;;4.97;1.73;;;;;;;;;;5030727;28;20173;-54
2021/11/21 13:55:26;;;;;;;5.33;1.87;;;;;;;;;;5030583;28;20714;-53
2021/11/21 13:57:55;;;;;;;5.87;2.33;;;;;;;;;;5016246;28;20265;-53
2021/11/21 14:00:25;;;;;;;6.70;2.40;;;;;;;;;;5005408;28;20193;-53
2021/11/21 14:02:57;;;;;;;5.50;2.67;;;;;;;;;;5028581;28;20178;-55
2021/11/21 14:05:24;;;;;;;4.23;1.90;;;;;;;;;;4996225;28;20218;-54
2021/11/21 14:08:02;;;;;;;5.93;1.70;;;;;;;;;;5019975;28;20724;-53
2021/11/21 14:10:30;;;;;;;6.87;1.80;;;;;;;;;;5012335;28;20202;-54
2021/11/21 14:13:17;;;;;;;6.30;1.80;;;;;;;;;;5028389;28;20170;-54
2021/11/21 14:15:43;;;;;;;8.77;2.47;;;;;;;;;;5023709;28;20782;-53
2021/11/21 14:18:09;;;;;;;7.50;1.73;;;;;;;;;;5028163;28;20677;-53
2021/11/21 14:20:51;;;;;;;9.87;2.30;;;;;;;;;;5009038;28;20170;-53
2021/11/21 14:23:22;;;;;;;10.17;2.20;;;;;;;;;;5030200;28;20162;-54
2021/11/21 14:26:02;;;;;;;5.80;2.23;;;;;;;;;;5001274;28;20174;-55